createdAt,value
2019-04-07T00:00:26.524Z,93.4890
2019-04-07T00:01:44.377Z,93.1273
2019-04-07T00:03:02.453Z,93.2937
2019-04-07T00:04:20.355Z,93.1090
2019-04-07T00:05:37.875Z,93.1640
2019-04-07T00:06:56.141Z,92.8038
2019-04-07T00:08:13.669Z,92.4102
2019-04-07T00:09:31.132Z,92.2866
2019-04-07T00:10:48.614Z,92.9946
2019-04-07T00:12:06.131Z,94.1756
2019-04-07T00:13:23.651Z,94.1711
2019-04-07T00:14:41.104Z,93.6507
2019-04-07T00:15:57.551Z,93.2692
2019-04-07T00:17:15.018Z,93.4386
2019-04-07T00:18:32.527Z,92.5551
2019-04-07T00:19:50.406Z,91.9142
2019-04-07T00:21:07.896Z,90.9712
2019-04-07T00:22:25.318Z,91.5129
2019-04-07T00:23:42.979Z,91.5633
2019-04-07T00:25:00.720Z,91.3848
2019-04-07T00:26:18.255Z,91.9295
2019-04-07T00:27:35.737Z,91.9112
2019-04-07T00:28:53.202Z,91.6457
2019-04-07T00:30:10.755Z,91.9158
2019-04-07T00:31:28.877Z,92.4926
2019-04-07T00:32:46.769Z,91.5587
2019-04-07T00:34:04.252Z,91.3344
2019-04-07T00:35:26.822Z,91.1330
2019-04-07T00:36:43.083Z,91.4031
2019-04-07T00:38:00.616Z,91.0964
2019-04-07T00:39:18.113Z,91.3741
2019-04-07T00:40:35.889Z,91.7372
2019-04-07T00:41:53.332Z,91.4855
2019-04-07T00:43:10.884Z,91.7052
2019-04-07T00:44:29.023Z,92.4285
2019-04-07T00:45:47.007Z,92.5322
2019-04-07T00:47:04.480Z,92.4193
2019-04-07T00:48:22.159Z,92.7199
2019-04-07T00:49:40.078Z,92.5689
2019-04-07T00:50:57.634Z,92.8359
2019-04-07T00:52:15.050Z,92.7947
2019-04-07T00:53:32.599Z,92.1202
2019-04-07T00:54:50.055Z,91.9615
2019-04-07T00:56:07.487Z,92.3857
2019-04-07T00:57:25.344Z,93.0739
2019-04-07T00:58:44.493Z,94.0261
2019-04-07T01:00:02.824Z,93.4127
2019-04-07T01:01:20.720Z,93.0175
2019-04-07T01:02:38.757Z,94.4747
2019-04-07T01:03:56.833Z,92.3094
2019-04-07T01:05:14.773Z,93.6217
2019-04-07T01:06:32.921Z,92.7245
2019-04-07T01:07:50.947Z,94.0200
2019-04-07T01:09:09.110Z,93.1640
2019-04-07T01:10:27.264Z,92.5002
2019-04-07T01:11:44.782Z,93.7331
2019-04-07T01:13:02.212Z,93.8293
2019-04-07T01:14:19.806Z,93.4081
2019-04-07T01:15:37.267Z,94.2901
2019-04-07T01:16:53.760Z,94.3282
2019-04-07T01:18:11.207Z,93.0007
2019-04-07T01:19:28.870Z,92.9671
2019-04-07T01:20:46.869Z,91.2703
2019-04-07T01:22:04.331Z,91.9066
2019-04-07T01:23:22.344Z,91.7037
2019-04-07T01:24:40.503Z,91.3924
2019-04-07T01:25:58.536Z,91.8242
2019-04-07T01:27:16.043Z,91.6915
2019-04-07T01:28:33.488Z,92.1721
2019-04-07T01:29:50.938Z,92.9091
2019-04-07T01:31:08.777Z,92.8084
2019-04-07T01:32:26.676Z,93.1380
2019-04-07T01:33:44.348Z,92.8298
2019-04-07T01:35:02.414Z,92.7520
2019-04-07T01:36:19.942Z,92.7840
2019-04-07T01:37:37.381Z,92.5429
2019-04-07T01:38:54.887Z,92.5551
2019-04-07T01:40:12.372Z,92.1996
2019-04-07T01:41:29.806Z,91.8975
2019-04-07T01:42:47.286Z,92.2530
2019-04-07T01:44:04.798Z,91.4611
2019-04-07T01:45:22.285Z,91.5114
2019-04-07T01:46:39.704Z,91.7968
2019-04-07T01:47:57.145Z,91.8059
2019-04-07T01:49:15.025Z,91.7220
2019-04-07T01:50:32.781Z,91.7281
2019-04-07T01:51:50.442Z,91.5801
2019-04-07T01:53:07.893Z,92.0302
2019-04-07T01:54:25.705Z,92.0256
2019-04-07T01:55:43.881Z,92.2942
2019-04-07T01:57:01.407Z,92.7123
2019-04-07T01:58:20.057Z,93.1960
2019-04-07T01:59:37.672Z,93.2143
2019-04-07T02:00:54.158Z,93.6095
2019-04-07T02:02:11.584Z,93.6095
2019-04-07T02:03:29.105Z,93.6629
2019-04-07T02:04:46.553Z,93.7224
2019-04-07T02:06:05.557Z,93.9986
2019-04-07T02:07:23.777Z,94.1360
2019-04-07T02:08:41.725Z,94.0017
2019-04-07T02:10:00.045Z,93.6278
2019-04-07T02:11:17.528Z,93.3486
2019-04-07T02:12:35.168Z,93.1426
2019-04-07T02:13:53.263Z,91.9738
2019-04-07T02:15:11.310Z,91.4931
2019-04-07T02:16:28.780Z,91.8883
2019-04-07T02:17:46.926Z,92.5551
2019-04-07T02:19:05.047Z,92.7108
2019-04-07T02:20:23.189Z,92.6116
2019-04-07T02:21:40.713Z,92.5048
2019-04-07T02:22:58.167Z,92.5795
2019-04-07T02:24:15.771Z,92.6024
2019-04-07T02:25:33.274Z,92.5566
2019-04-07T02:26:50.755Z,92.9076
2019-04-07T02:28:08.202Z,93.2158
2019-04-07T02:29:25.662Z,93.4630
2019-04-07T02:30:43.118Z,93.6812
2019-04-07T02:32:01.315Z,93.8842
2019-04-07T02:33:19.883Z,93.7179
2019-04-07T02:34:36.351Z,93.3791
2019-04-07T02:35:53.801Z,93.0678
2019-04-07T02:37:11.990Z,92.4331
2019-04-07T02:38:29.385Z,91.7495
2019-04-07T02:39:47.066Z,90.3212
2019-04-07T02:41:04.544Z,89.6819
2019-04-07T02:42:22.800Z,89.7124
2019-04-07T02:43:40.397Z,88.9250
2019-04-07T02:44:57.887Z,88.5451
2019-04-07T02:46:14.833Z,88.5863
2019-04-07T02:47:32.307Z,88.8289
2019-04-07T02:48:50.980Z,88.8670
2019-04-07T02:50:08.868Z,88.6229
2019-04-07T02:51:26.401Z,88.4550
2019-04-07T02:52:43.876Z,88.3162
2019-04-07T02:54:02.546Z,89.0913
2019-04-07T02:55:21.871Z,89.1279
2019-04-07T02:56:39.899Z,89.3324
2019-04-07T02:57:58.263Z,89.0272
2019-04-07T02:59:16.192Z,89.2958
2019-04-07T03:00:33.686Z,89.5445
2019-04-07T03:01:52.003Z,89.4057
2019-04-07T03:03:09.540Z,89.9474
2019-04-07T03:04:27.020Z,90.2083
2019-04-07T03:05:45.261Z,90.0328
2019-04-07T03:07:03.008Z,90.0252
2019-04-07T03:08:20.466Z,90.3456
2019-04-07T03:09:37.909Z,90.1289
2019-04-07T03:10:55.491Z,90.7744
2019-04-07T03:12:13.759Z,90.8843
2019-04-07T03:13:31.634Z,90.9483
2019-04-07T03:14:49.411Z,90.2708
2019-04-07T03:16:07.671Z,90.2617
2019-04-07T03:17:25.662Z,90.3777
2019-04-07T03:18:44.247Z,90.0511
2019-04-07T03:20:02.891Z,90.0252
2019-04-07T03:21:20.492Z,90.0847
2019-04-07T03:22:38.457Z,89.7871
2019-04-07T03:23:56.484Z,90.2205
2019-04-07T03:25:14.014Z,90.3029
2019-04-07T03:26:32.275Z,88.7785
2019-04-07T03:27:51.393Z,89.6956
2019-04-07T03:29:09.752Z,89.6040
2019-04-07T03:30:28.425Z,88.8533
2019-04-07T03:31:50.407Z,89.7505
2019-04-07T03:33:13.235Z,87.9377
2019-04-07T03:34:33.388Z,87.9561
2019-04-07T03:35:53.874Z,88.5725
2019-04-07T03:37:27.089Z,88.3299
2019-04-07T03:38:36.710Z,88.5222
2019-04-07T03:39:54.289Z,89.4942
2019-04-07T03:41:12.011Z,88.3482
2019-04-07T03:42:29.833Z,88.7785
2019-04-07T03:43:48.317Z,86.8376
2019-04-07T03:45:06.073Z,87.0390
2019-04-07T03:46:23.730Z,88.1941
2019-04-07T03:47:42.319Z,88.7144
2019-04-07T03:48:59.931Z,88.3665
2019-04-07T03:50:18.544Z,87.9454
2019-04-07T03:51:36.402Z,88.2017
2019-04-07T03:52:54.466Z,86.7185
2019-04-07T03:54:12.930Z,87.6204
2019-04-07T03:55:31.097Z,87.3457
2019-04-07T03:56:48.846Z,87.3976
2019-04-07T03:58:08.020Z,88.7022
2019-04-07T03:59:24.948Z,88.6519
2019-04-07T04:00:43.426Z,90.2769
2019-04-07T04:02:00.900Z,91.5496
2019-04-07T04:03:19.289Z,92.3415
2019-04-07T04:04:37.267Z,93.1136
2019-04-07T04:05:55.165Z,92.9641
2019-04-07T04:07:22.609Z,92.6207
2019-04-07T04:08:36.240Z,92.8725
2019-04-07T04:09:54.579Z,92.7810
2019-04-07T04:11:12.043Z,91.2429
2019-04-07T04:12:30.021Z,92.4697
2019-04-07T04:13:47.805Z,93.0694
2019-04-07T04:15:06.675Z,93.6507
2019-04-07T04:16:24.923Z,93.8003
2019-04-07T04:17:43.067Z,94.1711
2019-04-07T04:19:00.517Z,94.4472
2019-04-07T04:20:17.962Z,94.8165
2019-04-07T04:21:36.363Z,93.8323
2019-04-07T04:22:54.726Z,92.9351
2019-04-07T04:24:12.327Z,94.1176
2019-04-07T04:25:30.406Z,94.4961
2019-04-07T04:26:48.038Z,94.6838
2019-04-07T04:28:05.517Z,94.4640
2019-04-07T04:29:23.358Z,94.6883
2019-04-07T04:30:42.042Z,95.4726
2019-04-07T04:32:01.399Z,95.6908
2019-04-07T04:33:19.904Z,95.6558
2019-04-07T04:34:39.009Z,95.9655
2019-04-07T04:35:56.537Z,96.0159
2019-04-07T04:37:14.770Z,96.1944
2019-04-07T04:38:32.410Z,96.0403
2019-04-07T04:39:50.975Z,96.3775
2019-04-07T04:41:08.726Z,96.1318
2019-04-07T04:42:26.823Z,96.1715
2019-04-07T04:43:45.150Z,96.3180
2019-04-07T04:45:02.471Z,96.0266
2019-04-07T04:46:20.055Z,95.8389
2019-04-07T04:47:38.128Z,95.5352
2019-04-07T04:48:56.724Z,95.5734
2019-04-07T04:50:14.825Z,95.7656
2019-04-07T04:51:36.271Z,96.1273
2019-04-07T04:52:54.759Z,96.1913
2019-04-07T04:54:12.585Z,96.5652
2019-04-07T04:55:30.129Z,96.4736
2019-04-07T04:56:47.558Z,96.2310
2019-04-07T04:58:05.420Z,96.4233
2019-04-07T04:59:22.989Z,96.8765
2019-04-07T05:00:41.369Z,96.9558
2019-04-07T05:01:59.034Z,97.0138
2019-04-07T05:03:17.364Z,96.8765
2019-04-07T05:04:35.590Z,97.0565
2019-04-07T05:05:53.478Z,97.0687
2019-04-07T05:07:11.317Z,96.5515
2019-04-07T05:08:29.601Z,96.4660
2019-04-07T05:09:52.504Z,96.5988
2019-04-07T05:11:09.611Z,96.8460
2019-04-07T05:12:27.441Z,95.8648
2019-04-07T05:13:44.972Z,95.6237
2019-04-07T05:15:02.453Z,95.3613
2019-04-07T05:16:19.901Z,93.2250
2019-04-07T05:17:36.929Z,91.7586
2019-04-07T05:18:54.578Z,91.4336
2019-04-07T05:20:12.402Z,89.6345
2019-04-07T05:21:30.381Z,89.3553
2019-04-07T05:22:48.726Z,88.9479
2019-04-07T05:24:06.812Z,89.5674
2019-04-07T05:25:24.939Z,89.0166
2019-04-07T05:26:43.024Z,88.7465
2019-04-07T05:28:01.180Z,88.3818
2019-04-07T05:29:18.703Z,88.5374
2019-04-07T05:30:36.562Z,89.0440
2019-04-07T05:31:54.091Z,89.0761
2019-04-07T05:33:12.077Z,88.1926
2019-04-07T05:34:29.572Z,88.3726
2019-04-07T05:35:47.009Z,88.2490
2019-04-07T05:37:04.439Z,88.1117
2019-04-07T05:38:22.338Z,87.9957
2019-04-07T05:39:40.370Z,86.5766
2019-04-07T05:40:58.664Z,86.8391
2019-04-07T05:42:16.642Z,86.3081
2019-04-07T05:43:35.444Z,84.5945
2019-04-07T05:44:53.574Z,86.5736
2019-04-07T05:46:11.059Z,85.7801
2019-04-07T05:47:27.637Z,85.5558
2019-04-07T05:48:45.294Z,86.0929
2019-04-07T05:50:04.111Z,84.7837
2019-04-07T05:51:22.875Z,85.3834
2019-04-07T05:52:41.098Z,85.6535
2019-04-07T05:53:59.284Z,88.0507
2019-04-07T05:55:20.646Z,86.6514
2019-04-07T05:56:39.321Z,83.7537
2019-04-07T05:57:57.501Z,87.2953
2019-04-07T05:59:15.667Z,88.5863
2019-04-07T06:00:33.981Z,88.6107
2019-04-07T06:01:54.808Z,90.4906
2019-04-07T06:03:13.903Z,90.2022
2019-04-07T06:04:31.502Z,90.1106
2019-04-07T06:05:51.117Z,91.7052
2019-04-07T06:07:09.130Z,92.3644
2019-04-07T06:08:32.564Z,91.7174
2019-04-07T06:09:51.262Z,90.6783
2019-04-07T06:11:10.409Z,89.6773
2019-04-07T06:12:28.859Z,91.7449
2019-04-07T06:13:46.611Z,91.8013
2019-04-07T06:15:04.237Z,91.7037
2019-04-07T06:16:22.555Z,89.6361
2019-04-07T06:17:40.082Z,87.7165
2019-04-07T06:18:57.758Z,89.7459
2019-04-07T06:20:17.547Z,87.9408
2019-04-07T06:21:35.198Z,84.3610
2019-04-07T06:22:53.742Z,83.2959
2019-04-07T06:24:12.233Z,87.9957
2019-04-07T06:25:33.096Z,83.3860
2019-04-07T06:26:52.105Z,88.8197
2019-04-07T06:28:09.662Z,83.0762
2019-04-07T06:29:27.962Z,84.5075
2019-04-07T06:30:46.159Z,84.0238
2019-04-07T06:32:05.513Z,84.0177
2019-04-07T06:33:25.299Z,80.7233
2019-04-07T06:34:44.173Z,84.0360
2019-04-07T06:36:01.894Z,82.2644
2019-04-07T06:37:20.130Z,82.0905
2019-04-07T06:38:41.617Z,84.8142
2019-04-07T06:39:59.950Z,83.9216
2019-04-07T06:41:17.430Z,85.4139
2019-04-07T06:42:35.461Z,86.1555
2019-04-07T06:43:52.963Z,85.7252
2019-04-07T06:45:10.875Z,83.8819
2019-04-07T06:46:28.686Z,80.9384
2019-04-07T06:47:46.389Z,84.4266
2019-04-07T06:49:04.282Z,84.4846
2019-04-07T06:50:22.454Z,82.6413
2019-04-07T06:51:39.945Z,82.6902
2019-04-07T06:52:57.699Z,85.5558
2019-04-07T06:54:18.538Z,80.5112
2019-04-07T06:55:37.554Z,80.9186
2019-04-07T06:56:55.500Z,80.9873
2019-04-07T06:58:12.981Z,79.1333
2019-04-07T06:59:30.434Z,79.3957
2019-04-07T07:00:46.967Z,78.9563
2019-04-07T07:02:04.463Z,81.0559
2019-04-07T07:03:22.484Z,78.8266
2019-04-07T07:04:43.593Z,81.3230
2019-04-07T07:06:03.655Z,79.7482
2019-04-07T07:07:21.558Z,79.5773
2019-04-07T07:08:45.830Z,79.7253
2019-04-07T07:10:02.126Z,80.3418
2019-04-07T07:11:28.060Z,80.8377
2019-04-07T07:12:42.536Z,79.0463
2019-04-07T07:13:59.009Z,77.5998
2019-04-07T07:15:16.436Z,75.6771
2019-04-07T07:16:33.931Z,77.3770
2019-04-07T07:17:52.238Z,77.7783
2019-04-07T07:19:12.907Z,76.0067
2019-04-07T07:20:31.193Z,79.5010
2019-04-07T07:21:49.052Z,77.1557
2019-04-07T07:23:07.676Z,79.3454
2019-04-07T07:24:26.345Z,76.7437
2019-04-07T07:25:44.013Z,76.4431
2019-04-07T07:27:02.684Z,76.9924
2019-04-07T07:28:23.710Z,78.0362
2019-04-07T07:29:45.341Z,76.3836
2019-04-07T07:31:04.298Z,74.6319
2019-04-07T07:32:22.560Z,75.6100
2019-04-07T07:33:42.440Z,74.3297
2019-04-07T07:35:01.038Z,75.9014
2019-04-07T07:36:21.419Z,77.6059
2019-04-07T07:37:40.151Z,74.7341
2019-04-07T07:39:02.269Z,74.4488
2019-04-07T07:40:22.119Z,72.9656
2019-04-07T07:41:41.014Z,73.7453
2019-04-07T07:42:59.438Z,74.1833
2019-04-07T07:44:17.581Z,74.2336
2019-04-07T07:45:35.052Z,74.3450
2019-04-07T07:46:52.815Z,73.9910
2019-04-07T07:48:10.889Z,73.3013
2019-04-07T07:49:33.535Z,75.9030
2019-04-07T07:50:51.212Z,72.3888
2019-04-07T07:52:08.669Z,72.4529
2019-04-07T07:53:28.238Z,74.2855
2019-04-07T07:54:46.356Z,77.4777
2019-04-07T07:56:08.454Z,73.6996
2019-04-07T07:57:26.229Z,73.4829
2019-04-07T07:58:43.935Z,73.0022
2019-04-07T08:00:04.550Z,72.9351
2019-04-07T08:01:24.427Z,73.0068
2019-04-07T08:02:42.050Z,73.0617
2019-04-07T08:03:59.746Z,75.2300
2019-04-07T08:05:17.250Z,74.5602
2019-04-07T08:06:36.680Z,73.9834
2019-04-07T08:07:56.784Z,73.9513
2019-04-07T08:09:15.510Z,73.5760
2019-04-07T08:10:36.354Z,73.1991
2019-04-07T08:11:54.388Z,75.6085
2019-04-07T08:13:11.868Z,72.8206
2019-04-07T08:14:29.364Z,73.3822
2019-04-07T08:15:46.946Z,74.5006
2019-04-07T08:17:04.483Z,72.1599
2019-04-07T08:18:21.906Z,73.0358
2019-04-07T08:19:42.257Z,71.5984
2019-04-07T08:21:00.765Z,71.7067
2019-04-07T08:22:27.462Z,74.0230
2019-04-07T08:23:43.650Z,72.6589
2019-04-07T08:25:02.573Z,73.9269
2019-04-07T08:26:23.890Z,72.1096
2019-04-07T08:27:41.991Z,73.4752
2019-04-07T08:29:00.102Z,73.6156
2019-04-07T08:30:17.331Z,71.8029
2019-04-07T08:31:34.923Z,72.2347
2019-04-07T08:32:53.242Z,75.2575
2019-04-07T08:34:10.955Z,73.6629
2019-04-07T08:35:28.849Z,71.3680
2019-04-07T08:36:42.490Z,72.4483
2019-04-07T08:38:00.975Z,70.4128
2019-04-07T08:39:23.771Z,74.1482
2019-04-07T08:40:40.842Z,71.0475
2019-04-07T08:41:58.303Z,71.7021
2019-04-07T08:43:19.680Z,72.7428
2019-04-07T08:44:38.146Z,73.0129
2019-04-07T08:45:55.764Z,70.6645
2019-04-07T08:47:18.844Z,70.0038
2019-04-07T08:48:35.587Z,68.6076
2019-04-07T08:49:55.434Z,69.7810
2019-04-07T08:51:14.904Z,71.7998
2019-04-07T08:52:33.153Z,67.8203
2019-04-07T08:53:50.622Z,68.1590
2019-04-07T08:55:08.083Z,68.9342
2019-04-07T08:56:26.648Z,69.6574
2019-04-07T08:57:45.680Z,66.6453
2019-04-07T08:59:03.897Z,68.0873
2019-04-07T09:00:21.463Z,69.2363
2019-04-07T09:01:38.937Z,70.5318
2019-04-07T09:03:03.642Z,70.4494
2019-04-07T09:04:18.928Z,69.4652
2019-04-07T09:05:37.377Z,69.9214
2019-04-07T09:06:54.890Z,69.0990
2019-04-07T09:08:12.317Z,67.3716
2019-04-07T09:09:33.907Z,67.5914
2019-04-07T09:10:53.828Z,72.6101
2019-04-07T09:12:11.448Z,67.5608
2019-04-07T09:13:31.677Z,67.3732
2019-04-07T09:14:51.462Z,66.9322
2019-04-07T09:16:11.527Z,67.6188
2019-04-07T09:17:38.577Z,67.3777
2019-04-07T09:19:01.120Z,67.4876
2019-04-07T09:20:16.939Z,68.3055
2019-04-07T09:21:39.975Z,68.1361
2019-04-07T09:22:58.257Z,65.7969
2019-04-07T09:24:16.757Z,66.6987
2019-04-07T09:25:37.855Z,69.6880
2019-04-07T09:26:56.666Z,72.2118
2019-04-07T09:28:14.300Z,72.6009
2019-04-07T09:29:32.431Z,67.2114
2019-04-07T09:30:42.157Z,67.0481
2019-04-07T09:32:00.105Z,66.9642
2019-04-07T09:33:16.730Z,72.4254
2019-04-07T09:34:34.555Z,70.4997
2019-04-07T09:35:56.673Z,69.9718
2019-04-07T09:37:17.675Z,67.9026
2019-04-07T09:38:36.943Z,70.6493
2019-04-07T09:39:59.553Z,69.0791
2019-04-07T09:41:21.569Z,69.3004
2019-04-07T09:42:40.223Z,70.2434
2019-04-07T09:44:01.113Z,72.4544
2019-04-07T09:45:19.979Z,71.5892
2019-04-07T09:46:41.629Z,69.4224
2019-04-07T09:47:59.982Z,69.6574
2019-04-07T09:49:21.239Z,70.9651
2019-04-07T09:50:40.805Z,68.8930
2019-04-07T09:51:58.287Z,69.8497
2019-04-07T09:53:17.071Z,73.0526
2019-04-07T09:54:36.190Z,71.7250
2019-04-07T09:55:55.558Z,68.9464
2019-04-07T09:57:14.154Z,68.0674
2019-04-07T09:58:32.006Z,68.4382
2019-04-07T09:59:52.209Z,68.1910
2019-04-07T10:01:11.078Z,66.5476
2019-04-07T10:02:32.038Z,66.4118
2019-04-07T10:03:51.063Z,67.2953
2019-04-07T10:05:11.131Z,68.5161
2019-04-07T10:06:29.843Z,73.1533
2019-04-07T10:07:47.905Z,69.3950
2019-04-07T10:09:05.575Z,68.8090
2019-04-07T10:10:23.731Z,69.3400
2019-04-07T10:11:41.760Z,69.0852
2019-04-07T10:12:59.743Z,70.9789
2019-04-07T10:14:18.457Z,71.1315
2019-04-07T10:15:36.152Z,67.8935
2019-04-07T10:16:53.672Z,68.7678
2019-04-07T10:18:11.135Z,70.9804
2019-04-07T10:19:29.252Z,68.1972
2019-04-07T10:20:47.370Z,67.1443
2019-04-07T10:22:04.808Z,67.9530
2019-04-07T10:23:23.097Z,67.0756
2019-04-07T10:24:40.607Z,67.7882
2019-04-07T10:25:58.461Z,66.9184
2019-04-07T10:27:17.620Z,67.3716
2019-04-07T10:28:36.710Z,66.0304
2019-04-07T10:29:56.611Z,66.5614
2019-04-07T10:31:13.801Z,68.0079
2019-04-07T10:32:31.887Z,68.3421
2019-04-07T10:33:49.486Z,71.6945
2019-04-07T10:35:07.054Z,70.7088
2019-04-07T10:36:25.801Z,70.5623
2019-04-07T10:37:44.301Z,66.7186
2019-04-07T10:39:03.160Z,69.7078
2019-04-07T10:40:23.063Z,69.8940
2019-04-07T10:41:41.737Z,67.8889
2019-04-07T10:42:59.757Z,69.1081
2019-04-07T10:44:17.906Z,71.6075
2019-04-07T10:45:35.515Z,71.1086
2019-04-07T10:46:52.961Z,70.1778
2019-04-07T10:48:11.109Z,69.3263
2019-04-07T10:49:29.568Z,69.4591
2019-04-07T10:50:47.067Z,70.1564
2019-04-07T10:52:04.575Z,70.2052
2019-04-07T10:53:22.727Z,70.2525
2019-04-07T10:54:40.478Z,71.8593
2019-04-07T10:55:57.997Z,70.2937
2019-04-07T10:57:16.634Z,69.1020
2019-04-07T10:58:35.109Z,69.0074
2019-04-07T10:59:53.295Z,68.2277
2019-04-07T11:01:11.124Z,67.4830
2019-04-07T11:02:29.362Z,70.8843
2019-04-07T11:03:46.871Z,67.1168
2019-04-07T11:05:05.111Z,68.5069
2019-04-07T11:06:22.788Z,67.2801
2019-04-07T11:07:40.431Z,67.0161
2019-04-07T11:08:57.918Z,70.8690
2019-04-07T11:10:15.885Z,72.4437
2019-04-07T11:11:33.374Z,68.1544
2019-04-07T11:12:51.354Z,67.8676
2019-04-07T11:14:09.855Z,68.6397
2019-04-07T11:15:28.304Z,69.3965
2019-04-07T11:16:46.998Z,68.9982
2019-04-07T11:18:04.614Z,69.4606
2019-04-07T11:19:22.084Z,67.2663
2019-04-07T11:20:39.525Z,68.2139
2019-04-07T11:21:57.961Z,70.2480
2019-04-07T11:23:15.609Z,69.3034
2019-04-07T11:24:33.859Z,68.0217
2019-04-07T11:25:51.400Z,67.3671
2019-04-07T11:27:09.275Z,67.4647
2019-04-07T11:28:28.855Z,70.0832
2019-04-07T11:29:46.715Z,67.5181
2019-04-07T11:31:04.165Z,69.4087
2019-04-07T11:32:20.655Z,66.2470
2019-04-07T11:33:38.114Z,67.0649
2019-04-07T11:34:55.551Z,66.6346
2019-04-07T11:36:13.811Z,69.2531
2019-04-07T11:37:31.346Z,67.1015
2019-04-07T11:38:49.477Z,67.0375
2019-04-07T11:40:06.993Z,67.1977
2019-04-07T11:41:27.326Z,66.3966
2019-04-07T11:42:46.075Z,67.3320
2019-04-07T11:44:03.580Z,69.3782
2019-04-07T11:45:21.061Z,67.3442
2019-04-07T11:46:38.923Z,66.3188
2019-04-07T11:47:55.395Z,67.2541
2019-04-07T11:49:13.506Z,68.3650
2019-04-07T11:50:31.055Z,66.6819
2019-04-07T11:51:48.956Z,66.2135
2019-04-07T11:53:07.443Z,68.3421
2019-04-07T11:54:25.201Z,69.2134
2019-04-07T11:55:43.179Z,67.9713
2019-04-07T11:57:00.896Z,67.2496
2019-04-07T11:58:25.534Z,68.7038
2019-04-07T11:59:39.870Z,68.1880
2019-04-07T12:00:58.103Z,67.4372
2019-04-07T12:02:18.561Z,67.4083
2019-04-07T12:03:36.467Z,67.6844
2019-04-07T12:04:55.382Z,67.0939
2019-04-07T12:06:14.335Z,67.6799
2019-04-07T12:07:33.569Z,71.3771
2019-04-07T12:08:51.173Z,69.6239
2019-04-07T12:10:09.548Z,66.8193
2019-04-07T12:11:27.745Z,67.3899
2019-04-07T12:12:45.288Z,67.5273
2019-04-07T12:14:02.845Z,67.5105
2019-04-07T12:15:24.172Z,66.4927
2019-04-07T12:16:42.705Z,67.5364
2019-04-07T12:18:00.311Z,66.5522
2019-04-07T12:19:20.391Z,66.8513
2019-04-07T12:20:42.011Z,67.3442
2019-04-07T12:21:59.510Z,66.6407
2019-04-07T12:23:21.773Z,66.4057
2019-04-07T12:24:39.359Z,66.5263
2019-04-07T12:25:57.586Z,67.3136
2019-04-07T12:27:15.183Z,67.4922
2019-04-07T12:28:33.392Z,68.2048
2019-04-07T12:29:51.898Z,66.1051
2019-04-07T12:31:10.215Z,66.3615
2019-04-07T12:32:27.708Z,66.7124
2019-04-07T12:33:45.221Z,66.6270
2019-04-07T12:35:03.183Z,68.7678
2019-04-07T12:36:21.581Z,68.8457
2019-04-07T12:37:43.340Z,68.4855
2019-04-07T12:39:01.918Z,65.8763
2019-04-07T12:40:22.341Z,66.0273
2019-04-07T12:41:40.064Z,65.6931
2019-04-07T12:42:58.088Z,66.0166
2019-04-07T12:44:15.863Z,66.2425
2019-04-07T12:45:35.642Z,66.9734
2019-04-07T12:46:54.008Z,68.1682
2019-04-07T12:48:11.625Z,67.1885
2019-04-07T12:49:29.863Z,64.9516
2019-04-07T12:50:49.825Z,65.7984
2019-04-07T12:52:08.573Z,66.1585
2019-04-07T12:53:26.384Z,65.0889
2019-04-07T12:54:43.969Z,64.6220
2019-04-07T12:56:02.453Z,63.9902
2019-04-07T12:57:20.188Z,64.9134
2019-04-07T12:58:41.221Z,66.1723
2019-04-07T12:59:59.806Z,62.6429
2019-04-07T13:01:19.802Z,63.4592
2019-04-07T13:02:38.127Z,63.4668
2019-04-07T13:03:55.851Z,63.4226
2019-04-07T13:05:13.490Z,64.4800
2019-04-07T13:06:30.995Z,63.7186
2019-04-07T13:07:51.247Z,63.3341
2019-04-07T13:09:10.342Z,61.3153
2019-04-07T13:10:28.062Z,61.5091
2019-04-07T13:11:49.425Z,62.3133
2019-04-07T13:13:08.022Z,62.1958
2019-04-07T13:14:25.707Z,61.5167
2019-04-07T13:15:47.478Z,61.5869
2019-04-07T13:17:05.707Z,61.8250
2019-04-07T13:18:23.187Z,61.3703
2019-04-07T13:19:44.043Z,61.6724
2019-04-07T13:21:03.321Z,62.6566
2019-04-07T13:22:21.526Z,60.5005
2019-04-07T13:23:39.717Z,59.2477
2019-04-07T13:24:59.008Z,60.8225
2019-04-07T13:26:17.604Z,59.8886
2019-04-07T13:27:37.231Z,60.0244
2019-04-07T13:28:56.426Z,61.2711
2019-04-07T13:30:13.914Z,59.3881
2019-04-07T13:31:31.864Z,60.5066
2019-04-07T13:32:53.004Z,59.2203
2019-04-07T13:34:12.690Z,59.9756
2019-04-07T13:35:29.261Z,59.2783
2019-04-07T13:36:46.695Z,59.3713
2019-04-07T13:38:05.559Z,59.4430
2019-04-07T13:39:22.021Z,58.9914
2019-04-07T13:40:42.655Z,62.3377
2019-04-07T13:42:02.217Z,59.4247
2019-04-07T13:43:19.686Z,59.3286
2019-04-07T13:44:39.627Z,58.4497
2019-04-07T13:45:58.830Z,59.5987
2019-04-07T13:47:16.403Z,60.2991
2019-04-07T13:48:35.509Z,60.4334
2019-04-07T13:49:55.406Z,61.8463
2019-04-07T13:51:15.745Z,61.5396
2019-04-07T13:52:34.411Z,60.6989
2019-04-07T13:53:52.331Z,60.0107
2019-04-07T13:55:09.826Z,59.3835
2019-04-07T13:56:27.276Z,60.7401
2019-04-07T13:57:45.003Z,60.4364
2019-04-07T13:59:05.961Z,59.0829
2019-04-07T14:00:25.223Z,59.6780
2019-04-07T14:01:42.710Z,60.0717
2019-04-07T14:03:01.320Z,60.3128
2019-04-07T14:04:21.159Z,64.1505
2019-04-07T14:05:40.687Z,59.7787
2019-04-07T14:06:58.820Z,60.3174
2019-04-07T14:08:16.466Z,60.6577
2019-04-07T14:09:35.380Z,64.1855
2019-04-07T14:10:52.912Z,60.6897
2019-04-07T14:12:12.530Z,60.7523
2019-04-07T14:13:31.153Z,61.6785
2019-04-07T14:14:49.398Z,61.1887
2019-04-07T14:16:07.419Z,60.4517
2019-04-07T14:17:25.004Z,64.1489
2019-04-07T14:18:44.991Z,60.6027
2019-04-07T14:20:05.011Z,59.4217
2019-04-07T14:21:22.788Z,59.8871
2019-04-07T14:22:40.996Z,60.5020
2019-04-07T14:23:59.315Z,60.6851
2019-04-07T14:25:16.823Z,60.8392
2019-04-07T14:26:34.646Z,59.5544
2019-04-07T14:27:52.601Z,60.9720
2019-04-07T14:29:10.109Z,60.7675
2019-04-07T14:30:28.044Z,61.5778
2019-04-07T14:31:45.542Z,61.4893
2019-04-07T14:33:03.454Z,63.9292
2019-04-07T14:34:21.771Z,62.6856
2019-04-07T14:35:39.249Z,64.3915
2019-04-07T14:37:00.030Z,61.8891
2019-04-07T14:38:17.516Z,62.0432
2019-04-07T14:39:35.809Z,59.0829
2019-04-07T14:40:53.313Z,58.6648
2019-04-07T14:42:11.266Z,60.1892
2019-04-07T14:43:29.894Z,59.4171
2019-04-07T14:44:47.380Z,61.1276
2019-04-07T14:46:04.384Z,61.8891
2019-04-07T14:47:21.914Z,60.4150
2019-04-07T14:48:40.212Z,60.5783
2019-04-07T14:49:57.749Z,61.2879
2019-04-07T14:51:15.539Z,60.2823
2019-04-07T14:52:33.722Z,60.4273
2019-04-07T14:53:51.185Z,60.1679
2019-04-07T14:55:08.654Z,60.2274
2019-04-07T14:56:26.295Z,60.3555
2019-04-07T14:57:43.751Z,62.2995
2019-04-07T14:59:00.651Z,60.9094
2019-04-07T15:00:18.374Z,60.9049
2019-04-07T15:01:36.765Z,61.0224
2019-04-07T15:02:54.267Z,60.7156
2019-04-07T15:04:11.753Z,59.6445
2019-04-07T15:05:29.846Z,60.5097
2019-04-07T15:06:47.363Z,60.3510
2019-04-07T15:07:59.483Z,59.5453
2019-04-07T15:09:18.793Z,60.8621
2019-04-07T15:10:37.241Z,62.5162
2019-04-07T15:11:54.809Z,61.4939
2019-04-07T15:13:12.257Z,61.1872
2019-04-07T15:14:32.874Z,62.5483
2019-04-07T15:15:51.673Z,61.2116
2019-04-07T15:17:10.955Z,62.4002
2019-04-07T15:18:28.654Z,61.6190
2019-04-07T15:19:46.250Z,60.2762
2019-04-07T15:21:04.575Z,61.2070
2019-04-07T15:22:25.887Z,62.1530
2019-04-07T15:23:46.795Z,62.2782
2019-04-07T15:25:07.201Z,63.0777
2019-04-07T15:26:25.520Z,61.8921
2019-04-07T15:27:42.981Z,61.9791
2019-04-07T15:29:05.334Z,60.6836
2019-04-07T15:30:22.853Z,61.4984
2019-04-07T15:31:40.612Z,61.5625
2019-04-07T15:33:01.008Z,63.0915
2019-04-07T15:34:20.126Z,62.4567
2019-04-07T15:35:38.289Z,63.1144
2019-04-07T15:36:56.797Z,62.0386
2019-04-07T15:38:15.285Z,62.3728
2019-04-07T15:39:32.887Z,62.8000
2019-04-07T15:40:50.641Z,63.7186
2019-04-07T15:42:09.463Z,63.2883
2019-04-07T15:43:27.991Z,63.2944
2019-04-07T15:44:46.267Z,63.5538
2019-04-07T15:46:03.845Z,64.6250
2019-04-07T15:47:22.234Z,63.7049